sensor_id;sensor_type;location;lat;lon;timestamp;pressure;altitude;pressure_sealevel;temperature;humidity
6389;BME280;3227;42.654;23.360;2023-02-16T00:00:12;95660.88;;;3.07;73.66
6389;BME280;3227;42.654;23.360;2023-02-16T00:02:41;95665.22;;;3.10;73.25
6389;BME280;3227;42.654;23.360;2023-02-16T00:05:22;95657.53;;;3.08;73.50
6389;BME280;3227;42.654;23.360;2023-02-16T00:07:49;95661.75;;;3.08;73.08
6389;BME280;3227;42.654;23.360;2023-02-16T00:10:16;95654.94;;;3.06;72.17
6389;BME280;3227;42.654;23.360;2023-02-16T00:12:45;95656.56;;;3.04;72.93
6389;BME280;3227;42.654;23.360;2023-02-16T00:15:44;95606.50;;;2.81;72.51
6389;BME280;3227;42.654;23.360;2023-02-16T00:18:16;95654.28;;;3.11;72.72
6389;BME280;3227;42.654;23.360;2023-02-16T00:20:43;95648.56;;;3.15;73.71
6389;BME280;3227;42.654;23.360;2023-02-16T00:23:10;95654.63;;;3.18;73.43
6389;BME280;3227;42.654;23.360;2023-02-16T00:25:37;95647.84;;;3.17;72.71
6389;BME280;3227;42.654;23.360;2023-02-16T00:28:11;95649.06;;;3.08;73.58
6389;BME280;3227;42.654;23.360;2023-02-16T00:30:38;95644.97;;;3.10;73.23
6389;BME280;3227;42.654;23.360;2023-02-16T00:33:11;95649.22;;;3.11;71.82
6389;BME280;3227;42.654;23.360;2023-02-16T00:35:39;95647.16;;;3.02;72.08
6389;BME280;3227;42.654;23.360;2023-02-16T00:38:06;95653.44;;;2.92;71.76
6389;BME280;3227;42.654;23.360;2023-02-16T00:40:33;95647.78;;;2.80;72.04
6389;BME280;3227;42.654;23.360;2023-02-16T00:43:00;95648.66;;;2.81;73.46
6389;BME280;3227;42.654;23.360;2023-02-16T00:45:29;95646.66;;;2.74;72.17
6389;BME280;3227;42.654;23.360;2023-02-16T00:47:59;95651.78;;;2.75;72.58
6389;BME280;3227;42.654;23.360;2023-02-16T00:50:27;95645.84;;;2.75;73.39
6389;BME280;3227;42.654;23.360;2023-02-16T00:52:54;95647.31;;;2.70;73.53
6389;BME280;3227;42.654;23.360;2023-02-16T00:55:24;95640.66;;;2.72;72.95
6389;BME280;3227;42.654;23.360;2023-02-16T00:57:54;95645.41;;;2.65;74.10
6389;BME280;3227;42.654;23.360;2023-02-16T01:00:23;95654.53;;;2.62;74.07
6389;BME280;3227;42.654;23.360;2023-02-16T01:02:54;95644.53;;;2.47;74.22
6389;BME280;3227;42.654;23.360;2023-02-16T01:05:21;95641.28;;;2.50;73.86
6389;BME280;3227;42.654;23.360;2023-02-16T01:07:48;95647.88;;;2.46;73.65
6389;BME280;3227;42.654;23.360;2023-02-16T01:10:44;95638.13;;;2.54;74.08
6389;BME280;3227;42.654;23.360;2023-02-16T01:13:32;95638.25;;;2.57;74.71
6389;BME280;3227;42.654;23.360;2023-02-16T01:16:00;95634.72;;;2.53;75.28
6389;BME280;3227;42.654;23.360;2023-02-16T01:18:28;95629.75;;;2.55;74.48
6389;BME280;3227;42.654;23.360;2023-02-16T01:20:55;95628.81;;;2.53;74.63
6389;BME280;3227;42.654;23.360;2023-02-16T01:23:22;95626.38;;;2.56;74.63
6389;BME280;3227;42.654;23.360;2023-02-16T01:25:49;95623.88;;;2.56;75.18
6389;BME280;3227;42.654;23.360;2023-02-16T01:28:18;95618.97;;;2.59;75.75
6389;BME280;3227;42.654;23.360;2023-02-16T01:30:45;95616.88;;;2.68;74.88
6389;BME280;3227;42.654;23.360;2023-02-16T01:33:12;95616.16;;;2.71;75.07
6389;BME280;3227;42.654;23.360;2023-02-16T01:35:40;95604.50;;;2.74;74.92
6389;BME280;3227;42.654;23.360;2023-02-16T01:38:13;95616.44;;;2.77;74.82
6389;BME280;3227;42.654;23.360;2023-02-16T01:40:45;95616.19;;;2.72;74.42
6389;BME280;3227;42.654;23.360;2023-02-16T01:43:18;95620.09;;;2.65;74.32
6389;BME280;3227;42.654;23.360;2023-02-16T01:45:49;95613.09;;;2.60;73.65
6389;BME280;3227;42.654;23.360;2023-02-16T01:48:21;95613.63;;;2.53;72.83
6389;BME280;3227;42.654;23.360;2023-02-16T01:50:56;95604.94;;;2.48;72.74
6389;BME280;3227;42.654;23.360;2023-02-16T01:53:29;95578.84;;;2.31;73.51
6389;BME280;3227;42.654;23.360;2023-02-16T01:56:01;95606.53;;;2.46;73.63
6389;BME280;3227;42.654;23.360;2023-02-16T01:58:34;95534.28;;;1.98;73.53
6389;BME280;3227;42.654;23.360;2023-02-16T02:01:37;95600.53;;;2.44;74.37
6389;BME280;3227;42.654;23.360;2023-02-16T02:04:16;95599.50;;;2.58;74.51
6389;BME280;3227;42.654;23.360;2023-02-16T02:07:05;95599.88;;;2.65;74.04
6389;BME280;3227;42.654;23.360;2023-02-16T02:09:39;95601.88;;;2.73;74.21
6389;BME280;3227;42.654;23.360;2023-02-16T02:12:15;95542.00;;;2.36;73.33
6389;BME280;3227;42.654;23.360;2023-02-16T02:14:47;95597.84;;;2.76;73.60
6389;BME280;3227;42.654;23.360;2023-02-16T02:17:17;95601.44;;;2.81;73.46
6389;BME280;3227;42.654;23.360;2023-02-16T02:19:54;95606.56;;;2.83;73.15
6389;BME280;3227;42.654;23.360;2023-02-16T02:22:50;95602.81;;;2.75;73.20
6389;BME280;3227;42.654;23.360;2023-02-16T02:28:51;95597.69;;;2.55;72.46
6389;BME280;3227;42.654;23.360;2023-02-16T02:31:30;95595.84;;;2.51;72.86
6389;BME280;3227;42.654;23.360;2023-02-16T02:34:03;95530.56;;;2.09;73.85
6389;BME280;3227;42.654;23.360;2023-02-16T02:36:41;95532.81;;;2.03;74.40
6389;BME280;3227;42.654;23.360;2023-02-16T02:39:20;95588.94;;;2.31;73.94
6389;BME280;3227;42.654;23.360;2023-02-16T02:41:54;95585.19;;;2.23;74.14
6389;BME280;3227;42.654;23.360;2023-02-16T02:44:37;95536.56;;;1.93;73.71
6389;BME280;3227;42.654;23.360;2023-02-16T02:47:06;95591.34;;;2.28;73.60
6389;BME280;3227;42.654;23.360;2023-02-16T02:49:33;95591.28;;;2.26;73.85
6389;BME280;3227;42.654;23.360;2023-02-16T02:52:00;95581.50;;;2.16;74.14
6389;BME280;3227;42.654;23.360;2023-02-16T02:54:29;95593.63;;;2.23;73.84
6389;BME280;3227;42.654;23.360;2023-02-16T02:57:17;95596.31;;;2.26;73.19
6389;BME280;3227;42.654;23.360;2023-02-16T03:00:06;95593.81;;;2.26;73.64
6389;BME280;3227;42.654;23.360;2023-02-16T03:02:54;95602.09;;;2.24;73.07
6389;BME280;3227;42.654;23.360;2023-02-16T03:05:24;95596.53;;;2.13;72.77
6389;BME280;3227;42.654;23.360;2023-02-16T03:07:54;95606.34;;;2.07;73.41
6389;BME280;3227;42.654;23.360;2023-02-16T03:10:32;95603.75;;;2.06;73.05
6389;BME280;3227;42.654;23.360;2023-02-16T03:13:22;95598.69;;;2.06;73.13
6389;BME280;3227;42.654;23.360;2023-02-16T03:15:53;95594.34;;;2.03;72.98
6389;BME280;3227;42.654;23.360;2023-02-16T03:18:22;95606.22;;;2.04;72.92
6389;BME280;3227;42.654;23.360;2023-02-16T03:21:10;95599.53;;;2.06;73.65
6389;BME280;3227;42.654;23.360;2023-02-16T03:23:56;95602.16;;;2.08;73.66
6389;BME280;3227;42.654;23.360;2023-02-16T03:26:41;95598.03;;;2.10;74.28
6389;BME280;3227;42.654;23.360;2023-02-16T03:29:26;95596.47;;;2.12;74.15
6389;BME280;3227;42.654;23.360;2023-02-16T03:31:55;95567.91;;;1.97;73.67
6389;BME280;3227;42.654;23.360;2023-02-16T03:34:23;95548.63;;;1.81;73.20
6389;BME280;3227;42.654;23.360;2023-02-16T03:36:52;95592.34;;;2.14;73.75
6389;BME280;3227;42.654;23.360;2023-02-16T03:39:22;95577.28;;;1.99;73.35
6389;BME280;3227;42.654;23.360;2023-02-16T03:41:51;95510.34;;;1.57;73.56
6389;BME280;3227;42.654;23.360;2023-02-16T03:44:18;95591.13;;;2.06;73.66
6389;BME280;3227;42.654;23.360;2023-02-16T03:46:45;95586.53;;;1.99;74.14
6389;BME280;3227;42.654;23.360;2023-02-16T03:49:15;95590.41;;;1.92;73.21
6389;BME280;3227;42.654;23.360;2023-02-16T03:51:42;95594.78;;;1.95;72.91
6389;BME280;3227;42.654;23.360;2023-02-16T03:54:09;95537.34;;;1.58;74.04
6389;BME280;3227;42.654;23.360;2023-02-16T03:56:36;95594.47;;;1.88;74.04
6389;BME280;3227;42.654;23.360;2023-02-16T03:59:08;95601.81;;;1.84;73.95
6389;BME280;3227;42.654;23.360;2023-02-16T04:01:35;95572.06;;;1.78;73.92
6389;BME280;3227;42.654;23.360;2023-02-16T04:04:01;95585.94;;;1.86;74.24
6389;BME280;3227;42.654;23.360;2023-02-16T04:06:30;95566.06;;;1.76;73.60
6389;BME280;3227;42.654;23.360;2023-02-16T04:09:21;95584.31;;;1.71;74.15
6389;BME280;3227;42.654;23.360;2023-02-16T04:11:48;95586.84;;;1.71;73.78
6389;BME280;3227;42.654;23.360;2023-02-16T04:14:32;95578.41;;;1.70;74.30
6389;BME280;3227;42.654;23.360;2023-02-16T04:16:59;95573.75;;;1.62;74.24
6389;BME280;3227;42.654;23.360;2023-02-16T04:19:26;95566.97;;;1.61;74.26
6389;BME280;3227;42.654;23.360;2023-02-16T04:21:54;95574.06;;;1.51;74.91
6389;BME280;3227;42.654;23.360;2023-02-16T04:24:21;95468.41;;;0.76;75.62
6389;BME280;3227;42.654;23.360;2023-02-16T04:26:48;95570.28;;;1.43;74.68
6389;BME280;3227;42.654;23.360;2023-02-16T04:29:14;95575.44;;;1.45;75.03
6389;BME280;3227;42.654;23.360;2023-02-16T04:31:41;95563.66;;;1.45;73.99
6389;BME280;3227;42.654;23.360;2023-02-16T04:34:08;95574.56;;;1.44;74.90
6389;BME280;3227;42.654;23.360;2023-02-16T04:36:35;95572.34;;;1.34;75.15
6389;BME280;3227;42.654;23.360;2023-02-16T04:39:03;95569.81;;;1.34;75.88
6389;BME280;3227;42.654;23.360;2023-02-16T04:41:30;95567.59;;;1.40;75.64
6389;BME280;3227;42.654;23.360;2023-02-16T04:43:57;95579.78;;;1.47;74.29
6389;BME280;3227;42.654;23.360;2023-02-16T04:46:24;95578.75;;;1.44;75.54
6389;BME280;3227;42.654;23.360;2023-02-16T04:48:51;95582.84;;;1.09;78.28
6389;BME280;3227;42.654;23.360;2023-02-16T04:51:17;95566.97;;;0.80;80.61
6389;BME280;3227;42.654;23.360;2023-02-16T04:53:44;95577.94;;;0.80;81.25
6389;BME280;3227;42.654;23.360;2023-02-16T04:56:13;95590.31;;;0.92;81.72
6389;BME280;3227;42.654;23.360;2023-02-16T04:58:40;95594.28;;;1.03;79.67
6389;BME280;3227;42.654;23.360;2023-02-16T05:01:07;95579.84;;;1.00;80.14
6389;BME280;3227;42.654;23.360;2023-02-16T05:03:34;95597.47;;;1.15;79.57
6389;BME280;3227;42.654;23.360;2023-02-16T05:06:00;95596.97;;;1.22;79.14
6389;BME280;3227;42.654;23.360;2023-02-16T05:08:27;95597.03;;;1.24;78.88
6389;BME280;3227;42.654;23.360;2023-02-16T05:10:54;95595.47;;;1.26;78.50
6389;BME280;3227;42.654;23.360;2023-02-16T05:13:36;95600.78;;;1.30;77.63
6389;BME280;3227;42.654;23.360;2023-02-16T05:16:21;95595.84;;;1.33;77.90
6389;BME280;3227;42.654;23.360;2023-02-16T05:18:48;95597.91;;;1.40;76.62
6389;BME280;3227;42.654;23.360;2023-02-16T05:21:15;95591.28;;;1.42;76.28
6389;BME280;3227;42.654;23.360;2023-02-16T05:23:57;95597.13;;;1.41;76.52
6389;BME280;3227;42.654;23.360;2023-02-16T05:26:24;95596.34;;;1.42;75.86
6389;BME280;3227;42.654;23.360;2023-02-16T05:28:52;95603.13;;;1.43;76.56
6389;BME280;3227;42.654;23.360;2023-02-16T05:31:19;95489.56;;;0.79;76.37
6389;BME280;3227;42.654;23.360;2023-02-16T05:33:46;95598.31;;;1.48;75.48
6389;BME280;3227;42.654;23.360;2023-02-16T05:36:12;95605.47;;;1.57;75.23
6389;BME280;3227;42.654;23.360;2023-02-16T05:38:39;95608.09;;;1.58;74.61
6389;BME280;3227;42.654;23.360;2023-02-16T05:41:06;95613.06;;;1.73;73.66
6389;BME280;3227;42.654;23.360;2023-02-16T05:43:33;95609.19;;;1.79;73.30
6389;BME280;3227;42.654;23.360;2023-02-16T05:46:05;95621.13;;;2.00;73.18
6389;BME280;3227;42.654;23.360;2023-02-16T05:48:32;95611.63;;;2.12;72.54
6389;BME280;3227;42.654;23.360;2023-02-16T05:50:59;95617.59;;;2.30;72.24
6389;BME280;3227;42.654;23.360;2023-02-16T05:53:26;95623.31;;;2.44;72.28
6389;BME280;3227;42.654;23.360;2023-02-16T05:55:53;95624.31;;;2.65;71.23
6389;BME280;3227;42.654;23.360;2023-02-16T05:58:20;95617.72;;;2.86;70.64
6389;BME280;3227;42.654;23.360;2023-02-16T06:00:47;95616.84;;;3.03;69.19
6389;BME280;3227;42.654;23.360;2023-02-16T06:03:15;95622.78;;;3.23;68.38
6389;BME280;3227;42.654;23.360;2023-02-16T06:05:42;95621.78;;;3.39;68.00
6389;BME280;3227;42.654;23.360;2023-02-16T06:08:09;95617.53;;;3.57;68.27
6389;BME280;3227;42.654;23.360;2023-02-16T06:10:36;95576.34;;;3.61;67.47
6389;BME280;3227;42.654;23.360;2023-02-16T06:13:03;95592.41;;;4.02;65.96
6389;BME280;3227;42.654;23.360;2023-02-16T06:15:30;95629.72;;;4.46;65.38
6389;BME280;3227;42.654;23.360;2023-02-16T06:17:56;95632.44;;;4.71;64.62
6389;BME280;3227;42.654;23.360;2023-02-16T06:20:25;95642.69;;;4.95;62.61
6389;BME280;3227;42.654;23.360;2023-02-16T06:22:51;95637.88;;;5.01;62.41
6389;BME280;3227;42.654;23.360;2023-02-16T06:25:18;95649.41;;;5.15;62.30
6389;BME280;3227;42.654;23.360;2023-02-16T06:27:45;95652.13;;;5.20;62.18
6389;BME280;3227;42.654;23.360;2023-02-16T06:30:12;95656.00;;;5.32;61.37
6389;BME280;3227;42.654;23.360;2023-02-16T06:32:39;95640.31;;;5.44;61.54
6389;BME280;3227;42.654;23.360;2023-02-16T06:35:06;95654.88;;;5.70;61.01
6389;BME280;3227;42.654;23.360;2023-02-16T06:37:37;95659.47;;;5.81;59.33
6389;BME280;3227;42.654;23.360;2023-02-16T06:40:05;95657.91;;;5.84;58.92
6389;BME280;3227;42.654;23.360;2023-02-16T06:42:34;95654.81;;;5.91;59.25
6389;BME280;3227;42.654;23.360;2023-02-16T06:45:01;95662.44;;;6.15;58.99
6389;BME280;3227;42.654;23.360;2023-02-16T06:47:28;95650.09;;;6.27;58.10
6389;BME280;3227;42.654;23.360;2023-02-16T06:49:55;95667.19;;;6.55;57.06
6389;BME280;3227;42.654;23.360;2023-02-16T06:52:21;95646.63;;;6.49;56.83
6389;BME280;3227;42.654;23.360;2023-02-16T06:54:49;95648.50;;;6.55;55.99
6389;BME280;3227;42.654;23.360;2023-02-16T06:57:21;95665.31;;;6.75;56.08
6389;BME280;3227;42.654;23.360;2023-02-16T06:59:48;95667.78;;;6.73;56.04
6389;BME280;3227;42.654;23.360;2023-02-16T07:02:15;95635.00;;;6.57;55.98
6389;BME280;3227;42.654;23.360;2023-02-16T07:04:42;95643.41;;;6.55;56.65
6389;BME280;3227;42.654;23.360;2023-02-16T07:07:08;95667.13;;;6.79;56.41
6389;BME280;3227;42.654;23.360;2023-02-16T07:09:35;95659.31;;;7.00;56.50
6389;BME280;3227;42.654;23.360;2023-02-16T07:12:04;95663.97;;;7.13;55.56
6389;BME280;3227;42.654;23.360;2023-02-16T07:14:31;95667.47;;;7.16;55.75
6389;BME280;3227;42.654;23.360;2023-02-16T07:16:58;95659.31;;;7.28;60.54
6389;BME280;3227;42.654;23.360;2023-02-16T07:19:28;95646.16;;;7.71;63.77
6389;BME280;3227;42.654;23.360;2023-02-16T07:21:56;95626.06;;;7.83;58.97
6389;BME280;3227;42.654;23.360;2023-02-16T07:24:23;95629.69;;;7.90;57.63
6389;BME280;3227;42.654;23.360;2023-02-16T07:26:50;95610.44;;;7.71;57.06
6389;BME280;3227;42.654;23.360;2023-02-16T07:29:18;95639.13;;;7.94;54.67
6389;BME280;3227;42.654;23.360;2023-02-16T07:31:45;95641.31;;;7.80;54.54
6389;BME280;3227;42.654;23.360;2023-02-16T07:34:12;95638.25;;;7.93;57.66
6389;BME280;3227;42.654;23.360;2023-02-16T07:36:39;95631.75;;;8.34;58.68
6389;BME280;3227;42.654;23.360;2023-02-16T07:39:05;95632.19;;;8.20;53.46
6389;BME280;3227;42.654;23.360;2023-02-16T07:41:32;95615.44;;;7.98;53.47
6389;BME280;3227;42.654;23.360;2023-02-16T07:43:59;95628.88;;;7.92;56.70
6389;BME280;3227;42.654;23.360;2023-02-16T07:46:27;95635.66;;;7.92;54.32
6389;BME280;3227;42.654;23.360;2023-02-16T07:48:54;95614.84;;;7.77;57.00
6389;BME280;3227;42.654;23.360;2023-02-16T07:51:21;95629.44;;;7.81;56.54
6389;BME280;3227;42.654;23.360;2023-02-16T07:53:48;95629.06;;;7.39;55.48
6389;BME280;3227;42.654;23.360;2023-02-16T07:56:19;95623.13;;;6.84;56.25
6389;BME280;3227;42.654;23.360;2023-02-16T07:58:46;95625.81;;;6.62;56.83
6389;BME280;3227;42.654;23.360;2023-02-16T08:01:13;95624.53;;;6.48;58.00
6389;BME280;3227;42.654;23.360;2023-02-16T08:03:41;95641.50;;;6.74;59.10
6389;BME280;3227;42.654;23.360;2023-02-16T08:06:09;95642.38;;;7.02;57.66
6389;BME280;3227;42.654;23.360;2023-02-16T08:08:37;95640.03;;;7.08;58.15
6389;BME280;3227;42.654;23.360;2023-02-16T08:11:08;95646.41;;;7.22;57.10
6389;BME280;3227;42.654;23.360;2023-02-16T08:13:35;95647.66;;;7.08;56.96
6389;BME280;3227;42.654;23.360;2023-02-16T08:16:06;95644.66;;;7.21;57.68
6389;BME280;3227;42.654;23.360;2023-02-16T08:18:33;95648.94;;;7.22;56.89
6389;BME280;3227;42.654;23.360;2023-02-16T08:21:08;95614.16;;;6.96;57.91
6389;BME280;3227;42.654;23.360;2023-02-16T08:23:38;95635.09;;;7.14;57.56
6389;BME280;3227;42.654;23.360;2023-02-16T08:26:08;95653.53;;;7.34;58.38
6389;BME280;3227;42.654;23.360;2023-02-16T08:28:35;95655.03;;;7.27;57.43
6389;BME280;3227;42.654;23.360;2023-02-16T08:31:04;95657.88;;;7.36;58.39
6389;BME280;3227;42.654;23.360;2023-02-16T08:33:32;95654.78;;;7.46;56.12
6389;BME280;3227;42.654;23.360;2023-02-16T08:35:59;95659.88;;;7.46;57.38
6389;BME280;3227;42.654;23.360;2023-02-16T08:38:27;95654.94;;;7.52;56.94
6389;BME280;3227;42.654;23.360;2023-02-16T08:40:56;95648.50;;;7.63;56.69
6389;BME280;3227;42.654;23.360;2023-02-16T08:43:24;95660.50;;;7.68;56.60
6389;BME280;3227;42.654;23.360;2023-02-16T08:45:51;95600.47;;;7.50;56.19
6389;BME280;3227;42.654;23.360;2023-02-16T08:48:18;95646.75;;;7.62;56.43
6389;BME280;3227;42.654;23.360;2023-02-16T08:50:46;95647.84;;;7.42;56.86
6389;BME280;3227;42.654;23.360;2023-02-16T08:53:18;95652.94;;;7.42;57.41
6389;BME280;3227;42.654;23.360;2023-02-16T08:55:52;95608.53;;;7.06;57.50
6389;BME280;3227;42.654;23.360;2023-02-16T08:58:20;95645.47;;;7.20;58.52
6389;BME280;3227;42.654;23.360;2023-02-16T09:00:47;95596.69;;;7.08;58.26
6389;BME280;3227;42.654;23.360;2023-02-16T09:03:14;95648.66;;;7.41;58.47
6389;BME280;3227;42.654;23.360;2023-02-16T09:05:43;95644.47;;;7.43;58.58
6389;BME280;3227;42.654;23.360;2023-02-16T09:08:15;95595.97;;;7.12;58.10
6389;BME280;3227;42.654;23.360;2023-02-16T09:10:43;95644.13;;;7.31;58.79
6389;BME280;3227;42.654;23.360;2023-02-16T09:13:11;95640.84;;;7.35;58.85
6389;BME280;3227;42.654;23.360;2023-02-16T09:15:40;95548.53;;;6.88;58.25
6389;BME280;3227;42.654;23.360;2023-02-16T09:18:07;95640.41;;;7.48;58.47
6389;BME280;3227;42.654;23.360;2023-02-16T09:20:36;95641.69;;;7.64;58.58
6389;BME280;3227;42.654;23.360;2023-02-16T09:23:03;95628.75;;;7.88;58.89
6389;BME280;3227;42.654;23.360;2023-02-16T09:25:33;95629.78;;;7.94;56.77
6389;BME280;3227;42.654;23.360;2023-02-16T09:28:00;95640.59;;;7.86;57.09
6389;BME280;3227;42.654;23.360;2023-02-16T09:30:28;95619.16;;;7.79;57.24
6389;BME280;3227;42.654;23.360;2023-02-16T09:32:55;95625.81;;;7.74;57.66
6389;BME280;3227;42.654;23.360;2023-02-16T09:35:21;95618.56;;;7.88;57.86
6389;BME280;3227;42.654;23.360;2023-02-16T09:37:48;95615.91;;;8.16;57.68
6389;BME280;3227;42.654;23.360;2023-02-16T09:40:15;95523.50;;;7.63;57.32
6389;BME280;3227;42.654;23.360;2023-02-16T09:42:54;95602.88;;;8.06;56.79
6389;BME280;3227;42.654;23.360;2023-02-16T09:45:26;95620.44;;;7.95;57.16
6389;BME280;3227;42.654;23.360;2023-02-16T09:47:56;95618.13;;;7.73;57.76
6389;BME280;3227;42.654;23.360;2023-02-16T09:50:25;95612.78;;;7.63;58.12
6389;BME280;3227;42.654;23.360;2023-02-16T09:52:57;95615.00;;;7.83;57.72
6389;BME280;3227;42.654;23.360;2023-02-16T09:55:30;95602.44;;;7.89;57.53
6389;BME280;3227;42.654;23.360;2023-02-16T09:58:03;95591.63;;;7.99;56.92
6389;BME280;3227;42.654;23.360;2023-02-16T10:00:43;95592.72;;;8.09;56.73
6389;BME280;3227;42.654;23.360;2023-02-16T10:03:37;95588.47;;;8.40;56.73
6389;BME280;3227;42.654;23.360;2023-02-16T10:06:21;95601.16;;;8.70;55.55
6389;BME280;3227;42.654;23.360;2023-02-16T10:08:54;95586.81;;;8.77;55.83
6389;BME280;3227;42.654;23.360;2023-02-16T10:11:25;95591.41;;;8.92;54.75
6389;BME280;3227;42.654;23.360;2023-02-16T10:14:10;95542.25;;;8.66;53.59
6389;BME280;3227;42.654;23.360;2023-02-16T10:16:42;95580.19;;;8.85;54.12
6389;BME280;3227;42.654;23.360;2023-02-16T10:19:18;95576.59;;;8.77;54.24
6389;BME280;3227;42.654;23.360;2023-02-16T10:21:49;95572.97;;;8.67;54.27
6389;BME280;3227;42.654;23.360;2023-02-16T10:24:17;95551.22;;;8.49;54.12
6389;BME280;3227;42.654;23.360;2023-02-16T10:26:45;95575.28;;;8.58;54.86
6389;BME280;3227;42.654;23.360;2023-02-16T10:29:15;95573.09;;;8.72;54.78
6389;BME280;3227;42.654;23.360;2023-02-16T10:31:50;95572.66;;;8.91;53.70
6389;BME280;3227;42.654;23.360;2023-02-16T10:34:34;95570.44;;;9.06;53.55
6389;BME280;3227;42.654;23.360;2023-02-16T10:37:21;95563.03;;;9.17;53.98
6389;BME280;3227;42.654;23.360;2023-02-16T10:39:56;95559.91;;;9.30;52.74
6389;BME280;3227;42.654;23.360;2023-02-16T10:42:37;95564.31;;;9.39;52.27
6389;BME280;3227;42.654;23.360;2023-02-16T10:45:19;95557.94;;;9.59;52.80
6389;BME280;3227;42.654;23.360;2023-02-16T10:47:49;95559.34;;;9.88;51.42
6389;BME280;3227;42.654;23.360;2023-02-16T10:50:22;95557.03;;;10.01;50.80
6389;BME280;3227;42.654;23.360;2023-02-16T10:52:51;95496.78;;;9.73;50.55
6389;BME280;3227;42.654;23.360;2023-02-16T10:55:20;95546.06;;;10.08;50.39
6389;BME280;3227;42.654;23.360;2023-02-16T10:57:53;95539.31;;;10.11;50.14
6389;BME280;3227;42.654;23.360;2023-02-16T11:00:25;95526.53;;;10.13;50.49
6389;BME280;3227;42.654;23.360;2023-02-16T11:02:55;95535.28;;;10.24;49.41
6389;BME280;3227;42.654;23.360;2023-02-16T11:05:33;95534.47;;;10.26;49.83
6389;BME280;3227;42.654;23.360;2023-02-16T11:08:15;95531.97;;;10.31;49.38
6389;BME280;3227;42.654;23.360;2023-02-16T11:10:44;95525.28;;;10.39;49.86
6389;BME280;3227;42.654;23.360;2023-02-16T11:13:27;95522.06;;;10.51;48.65
6389;BME280;3227;42.654;23.360;2023-02-16T11:15:59;95518.69;;;10.53;48.15
6389;BME280;3227;42.654;23.360;2023-02-16T11:18:35;95521.44;;;10.16;49.20
6389;BME280;3227;42.654;23.360;2023-02-16T11:21:06;95517.13;;;10.13;49.95
6389;BME280;3227;42.654;23.360;2023-02-16T11:23:34;95510.94;;;10.01;49.44
6389;BME280;3227;42.654;23.360;2023-02-16T11:26:06;95516.78;;;9.47;51.08
6389;BME280;3227;42.654;23.360;2023-02-16T11:28:35;95508.69;;;9.27;51.59
6389;BME280;3227;42.654;23.360;2023-02-16T11:31:12;95484.75;;;9.25;51.49
6389;BME280;3227;42.654;23.360;2023-02-16T11:33:41;95446.56;;;8.89;51.85
6389;BME280;3227;42.654;23.360;2023-02-16T11:36:26;95484.72;;;9.24;51.73
6389;BME280;3227;42.654;23.360;2023-02-16T11:38:56;95496.44;;;9.54;50.94
6389;BME280;3227;42.654;23.360;2023-02-16T11:41:25;95494.28;;;9.76;50.97
6389;BME280;3227;42.654;23.360;2023-02-16T11:43:53;95492.94;;;9.98;50.93
6389;BME280;3227;42.654;23.360;2023-02-16T11:46:21;95491.69;;;10.21;49.89
6389;BME280;3227;42.654;23.360;2023-02-16T11:48:49;95495.81;;;10.13;49.21
6389;BME280;3227;42.654;23.360;2023-02-16T11:51:31;95490.88;;;9.77;49.43
6389;BME280;3227;42.654;23.360;2023-02-16T11:54:00;95445.69;;;9.77;49.57
6389;BME280;3227;42.654;23.360;2023-02-16T11:56:28;95437.97;;;9.76;48.80
6389;BME280;3227;42.654;23.360;2023-02-16T11:59:13;95486.59;;;10.24;47.92
6389;BME280;3227;42.654;23.360;2023-02-16T12:01:58;95460.66;;;10.04;48.20
6389;BME280;3227;42.654;23.360;2023-02-16T12:04:44;95467.81;;;10.23;47.91
6389;BME280;3227;42.654;23.360;2023-02-16T12:07:22;95464.03;;;10.53;47.78
6389;BME280;3227;42.654;23.360;2023-02-16T12:09:57;95462.63;;;10.75;47.37
6389;BME280;3227;42.654;23.360;2023-02-16T12:12:33;95464.66;;;10.98;46.40
6389;BME280;3227;42.654;23.360;2023-02-16T12:15:13;95460.56;;;11.13;46.59
6389;BME280;3227;42.654;23.360;2023-02-16T12:17:55;95444.41;;;11.18;45.86
6389;BME280;3227;42.654;23.360;2023-02-16T12:20:43;95438.47;;;11.24;45.46
6389;BME280;3227;42.654;23.360;2023-02-16T12:23:27;95438.69;;;11.42;44.95
6389;BME280;3227;42.654;23.360;2023-02-16T12:26:24;95441.38;;;11.54;45.12
6389;BME280;3227;42.654;23.360;2023-02-16T12:29:02;95436.28;;;11.59;44.28
6389;BME280;3227;42.654;23.360;2023-02-16T12:31:47;95431.91;;;11.49;44.41
6389;BME280;3227;42.654;23.360;2023-02-16T12:34:22;95423.22;;;11.37;44.38
6389;BME280;3227;42.654;23.360;2023-02-16T12:36:59;95427.75;;;11.60;43.95
6389;BME280;3227;42.654;23.360;2023-02-16T12:39:38;95422.91;;;11.87;44.58
6389;BME280;3227;42.654;23.360;2023-02-16T12:42:25;95420.53;;;12.08;43.36
6389;BME280;3227;42.654;23.360;2023-02-16T12:45:03;95415.50;;;12.22;43.88
6389;BME280;3227;42.654;23.360;2023-02-16T12:47:38;95363.13;;;12.06;42.67
6389;BME280;3227;42.654;23.360;2023-02-16T12:50:14;95414.81;;;12.47;41.80
6389;BME280;3227;42.654;23.360;2023-02-16T12:52:46;95416.59;;;12.56;42.13
6389;BME280;3227;42.654;23.360;2023-02-16T12:55:20;95394.19;;;12.34;41.63
6389;BME280;3227;42.654;23.360;2023-02-16T12:57:54;95397.38;;;12.02;42.63
6389;BME280;3227;42.654;23.360;2023-02-16T13:00:27;95400.91;;;12.16;41.89
6389;BME280;3227;42.654;23.360;2023-02-16T13:03:06;95402.63;;;12.20;42.22
6389;BME280;3227;42.654;23.360;2023-02-16T13:05:36;95393.28;;;12.30;42.47
6389;BME280;3227;42.654;23.360;2023-02-16T13:08:09;95394.19;;;12.37;42.37
6389;BME280;3227;42.654;23.360;2023-02-16T13:10:50;95393.38;;;12.41;41.88
6389;BME280;3227;42.654;23.360;2023-02-16T13:13:22;95388.28;;;12.48;41.42
6389;BME280;3227;42.654;23.360;2023-02-16T13:15:52;95388.25;;;12.47;41.86
6389;BME280;3227;42.654;23.360;2023-02-16T13:18:28;95383.06;;;12.35;41.58
6389;BME280;3227;42.654;23.360;2023-02-16T13:21:00;95382.19;;;12.33;40.93
6389;BME280;3227;42.654;23.360;2023-02-16T13:23:40;95302.81;;;11.62;41.39
6389;BME280;3227;42.654;23.360;2023-02-16T13:26:26;95380.25;;;12.06;42.16
6389;BME280;3227;42.654;23.360;2023-02-16T13:29:20;95379.38;;;12.04;41.69
6389;BME280;3227;42.654;23.360;2023-02-16T13:32:01;95375.22;;;12.19;42.64
6389;BME280;3227;42.654;23.360;2023-02-16T13:34:58;95347.88;;;12.31;42.33
6389;BME280;3227;42.654;23.360;2023-02-16T13:37:40;95379.78;;;12.62;41.57
6389;BME280;3227;42.654;23.360;2023-02-16T13:40:35;95361.81;;;12.66;40.88
6389;BME280;3227;42.654;23.360;2023-02-16T13:43:26;95373.03;;;12.82;41.38
6389;BME280;3227;42.654;23.360;2023-02-16T13:45:55;95350.72;;;12.81;40.51
6389;BME280;3227;42.654;23.360;2023-02-16T13:48:26;95372.22;;;12.90;40.23